sensor_id;sensor_type;location;lat;lon;timestamp;temperature;humidity
16134;DHT22;8172;45.018;5.972;2022-12-20T00:02:29;5.50;70.10
16134;DHT22;8172;45.018;5.972;2022-12-20T00:07:36;5.50;70.00
16134;DHT22;8172;45.018;5.972;2022-12-20T00:12:43;5.40;70.00
16134;DHT22;8172;45.018;5.972;2022-12-20T00:17:52;5.40;70.00
16134;DHT22;8172;45.018;5.972;2022-12-20T00:22:59;5.30;70.10
16134;DHT22;8172;45.018;5.972;2022-12-20T00:28:06;5.30;70.10
16134;DHT22;8172;45.018;5.972;2022-12-20T00:33:13;5.30;70.20
16134;DHT22;8172;45.018;5.972;2022-12-20T00:38:20;5.30;70.20
16134;DHT22;8172;45.018;5.972;2022-12-20T00:43:31;5.30;70.20
16134;DHT22;8172;45.018;5.972;2022-12-20T00:48:41;5.20;70.30
16134;DHT22;8172;45.018;5.972;2022-12-20T00:53:49;5.20;70.30
16134;DHT22;8172;45.018;5.972;2022-12-20T00:58:58;5.30;70.30
16134;DHT22;8172;45.018;5.972;2022-12-20T01:04:11;5.30;70.30
16134;DHT22;8172;45.018;5.972;2022-12-20T01:09:19;5.30;70.10
16134;DHT22;8172;45.018;5.972;2022-12-20T01:14:26;5.40;70.00
16134;DHT22;8172;45.018;5.972;2022-12-20T01:19:33;5.40;70.00
16134;DHT22;8172;45.018;5.972;2022-12-20T01:24:40;5.40;70.00
16134;DHT22;8172;45.018;5.972;2022-12-20T01:29:47;5.50;70.00
16134;DHT22;8172;45.018;5.972;2022-12-20T01:34:54;5.50;69.90
16134;DHT22;8172;45.018;5.972;2022-12-20T01:40:01;5.50;69.70
16134;DHT22;8172;45.018;5.972;2022-12-20T01:45:12;5.50;69.80
16134;DHT22;8172;45.018;5.972;2022-12-20T01:50:19;5.40;69.80
16134;DHT22;8172;45.018;5.972;2022-12-20T01:55:28;5.40;69.90
16134;DHT22;8172;45.018;5.972;2022-12-20T02:00:37;5.30;69.90
16134;DHT22;8172;45.018;5.972;2022-12-20T02:05:45;5.30;70.10
16134;DHT22;8172;45.018;5.972;2022-12-20T02:11:00;5.30;70.00
16134;DHT22;8172;45.018;5.972;2022-12-20T02:16:03;5.40;70.00
16134;DHT22;8172;45.018;5.972;2022-12-20T02:31:33;5.40;69.80
16134;DHT22;8172;45.018;5.972;2022-12-20T02:36:40;5.40;69.90
16134;DHT22;8172;45.018;5.972;2022-12-20T02:41:51;5.40;69.80
16134;DHT22;8172;45.018;5.972;2022-12-20T02:46:59;5.40;69.80
16134;DHT22;8172;45.018;5.972;2022-12-20T02:52:08;5.40;69.80
16134;DHT22;8172;45.018;5.972;2022-12-20T02:57:24;5.50;69.70
16134;DHT22;8172;45.018;5.972;2022-12-20T03:02:28;5.50;69.70
16134;DHT22;8172;45.018;5.972;2022-12-20T03:07:38;5.50;69.70
16134;DHT22;8172;45.018;5.972;2022-12-20T03:12:46;5.50;69.50
16134;DHT22;8172;45.018;5.972;2022-12-20T03:17:53;5.60;69.50
16134;DHT22;8172;45.018;5.972;2022-12-20T03:23:01;5.60;69.40
16134;DHT22;8172;45.018;5.972;2022-12-20T03:28:09;5.60;69.40
16134;DHT22;8172;45.018;5.972;2022-12-20T03:33:16;5.50;69.40
16134;DHT22;8172;45.018;5.972;2022-12-20T03:38:24;5.60;69.50
16134;DHT22;8172;45.018;5.972;2022-12-20T03:43:31;5.60;69.50
16134;DHT22;8172;45.018;5.972;2022-12-20T03:48:38;5.60;69.30
16134;DHT22;8172;45.018;5.972;2022-12-20T03:53:48;5.60;69.30
16134;DHT22;8172;45.018;5.972;2022-12-20T03:58:56;5.70;69.20
16134;DHT22;8172;45.018;5.972;2022-12-20T04:04:04;5.70;69.10
16134;DHT22;8172;45.018;5.972;2022-12-20T04:09:12;5.70;69.10
16134;DHT22;8172;45.018;5.972;2022-12-20T04:14:21;5.70;69.10
16134;DHT22;8172;45.018;5.972;2022-12-20T04:19:29;5.70;69.10
16134;DHT22;8172;45.018;5.972;2022-12-20T04:24:37;5.70;69.10
16134;DHT22;8172;45.018;5.972;2022-12-20T04:29:45;5.70;69.20
16134;DHT22;8172;45.018;5.972;2022-12-20T04:34:53;5.70;69.20
16134;DHT22;8172;45.018;5.972;2022-12-20T04:40:01;5.70;69.00
16134;DHT22;8172;45.018;5.972;2022-12-20T04:45:10;5.80;69.00
16134;DHT22;8172;45.018;5.972;2022-12-20T04:50:17;5.80;69.00
16134;DHT22;8172;45.018;5.972;2022-12-20T04:55:25;5.80;69.00
16134;DHT22;8172;45.018;5.972;2022-12-20T05:00:32;5.80;69.10
16134;DHT22;8172;45.018;5.972;2022-12-20T05:05:41;5.80;69.10
16134;DHT22;8172;45.018;5.972;2022-12-20T05:10:49;5.80;69.00
16134;DHT22;8172;45.018;5.972;2022-12-20T05:15:57;5.80;69.00
16134;DHT22;8172;45.018;5.972;2022-12-20T05:21:06;5.80;69.00
16134;DHT22;8172;45.018;5.972;2022-12-20T05:26:15;5.80;69.00
16134;DHT22;8172;45.018;5.972;2022-12-20T05:31:23;5.80;68.90
16134;DHT22;8172;45.018;5.972;2022-12-20T05:36:31;5.70;68.90
16134;DHT22;8172;45.018;5.972;2022-12-20T05:41:40;5.70;68.90
16134;DHT22;8172;45.018;5.972;2022-12-20T05:46:47;5.80;68.90
16134;DHT22;8172;45.018;5.972;2022-12-20T05:51:56;5.80;68.90
16134;DHT22;8172;45.018;5.972;2022-12-20T05:57:04;5.80;68.80
16134;DHT22;8172;45.018;5.972;2022-12-20T06:02:13;5.70;68.90
16134;DHT22;8172;45.018;5.972;2022-12-20T06:07:22;5.70;69.00
16134;DHT22;8172;45.018;5.972;2022-12-20T06:12:31;5.70;69.10
16134;DHT22;8172;45.018;5.972;2022-12-20T06:17:41;5.70;69.10
16134;DHT22;8172;45.018;5.972;2022-12-20T06:22:49;5.70;69.10
16134;DHT22;8172;45.018;5.972;2022-12-20T06:27:58;5.70;69.10
16134;DHT22;8172;45.018;5.972;2022-12-20T06:33:07;5.70;69.20
16134;DHT22;8172;45.018;5.972;2022-12-20T06:38:15;5.70;69.10
16134;DHT22;8172;45.018;5.972;2022-12-20T06:43:22;5.70;69.00
16134;DHT22;8172;45.018;5.972;2022-12-20T06:48:30;5.70;68.90
16134;DHT22;8172;45.018;5.972;2022-12-20T06:53:37;5.70;69.00
16134;DHT22;8172;45.018;5.972;2022-12-20T06:58:45;5.70;68.90
16134;DHT22;8172;45.018;5.972;2022-12-20T07:03:53;5.70;68.90
16134;DHT22;8172;45.018;5.972;2022-12-20T07:09:01;5.80;68.80
16134;DHT22;8172;45.018;5.972;2022-12-20T07:14:08;5.80;68.70
16134;DHT22;8172;45.018;5.972;2022-12-20T07:19:16;5.80;68.70
16134;DHT22;8172;45.018;5.972;2022-12-20T07:24:23;5.70;68.70
16134;DHT22;8172;45.018;5.972;2022-12-20T07:29:30;5.70;68.70
16134;DHT22;8172;45.018;5.972;2022-12-20T07:34:37;5.60;68.70
16134;DHT22;8172;45.018;5.972;2022-12-20T07:39:44;5.60;68.60
16134;DHT22;8172;45.018;5.972;2022-12-20T07:44:52;5.70;68.60
16134;DHT22;8172;45.018;5.972;2022-12-20T07:49:58;5.70;68.40
16134;DHT22;8172;45.018;5.972;2022-12-20T07:55:07;5.80;68.30
16134;DHT22;8172;45.018;5.972;2022-12-20T08:00:15;5.90;68.50
16134;DHT22;8172;45.018;5.972;2022-12-20T08:05:23;5.90;68.20
16134;DHT22;8172;45.018;5.972;2022-12-20T08:10:31;6.00;68.10
16134;DHT22;8172;45.018;5.972;2022-12-20T08:15:38;6.10;67.80
16134;DHT22;8172;45.018;5.972;2022-12-20T08:20:46;6.10;67.70
16134;DHT22;8172;45.018;5.972;2022-12-20T08:25:54;6.10;67.60
16134;DHT22;8172;45.018;5.972;2022-12-20T08:31:04;6.20;67.50
16134;DHT22;8172;45.018;5.972;2022-12-20T08:36:12;6.20;67.40
16134;DHT22;8172;45.018;5.972;2022-12-20T08:41:19;6.30;67.20
16134;DHT22;8172;45.018;5.972;2022-12-20T08:46:27;6.40;67.30
16134;DHT22;8172;45.018;5.972;2022-12-20T08:51:35;6.50;67.50
16134;DHT22;8172;45.018;5.972;2022-12-20T08:56:43;6.50;67.20
16134;DHT22;8172;45.018;5.972;2022-12-20T09:01:50;6.60;67.30
16134;DHT22;8172;45.018;5.972;2022-12-20T09:07:00;6.60;67.20
16134;DHT22;8172;45.018;5.972;2022-12-20T09:12:07;6.70;67.30
16134;DHT22;8172;45.018;5.972;2022-12-20T09:17:14;6.70;67.10
16134;DHT22;8172;45.018;5.972;2022-12-20T09:22:21;6.60;67.30
16134;DHT22;8172;45.018;5.972;2022-12-20T09:27:28;6.60;67.30
16134;DHT22;8172;45.018;5.972;2022-12-20T09:32:35;6.60;67.20
16134;DHT22;8172;45.018;5.972;2022-12-20T09:37:43;6.70;67.00
16134;DHT22;8172;45.018;5.972;2022-12-20T09:42:50;6.70;67.00
16134;DHT22;8172;45.018;5.972;2022-12-20T09:47:58;6.70;66.80
16134;DHT22;8172;45.018;5.972;2022-12-20T09:53:11;6.70;66.70
16134;DHT22;8172;45.018;5.972;2022-12-20T10:03:28;6.70;66.70
16134;DHT22;8172;45.018;5.972;2022-12-20T10:24:09;7.00;66.40
16134;DHT22;8172;45.018;5.972;2022-12-20T10:29:16;7.00;66.30
16134;DHT22;8172;45.018;5.972;2022-12-20T10:34:24;7.00;66.30
16134;DHT22;8172;45.018;5.972;2022-12-20T10:39:41;7.10;66.40
16134;DHT22;8172;45.018;5.972;2022-12-20T10:44:43;7.10;66.40
16134;DHT22;8172;45.018;5.972;2022-12-20T10:49:50;7.10;66.30
16134;DHT22;8172;45.018;5.972;2022-12-20T10:54:57;7.20;66.30
16134;DHT22;8172;45.018;5.972;2022-12-20T11:00:06;7.20;66.30
16134;DHT22;8172;45.018;5.972;2022-12-20T11:10:23;7.20;66.40
16134;DHT22;8172;45.018;5.972;2022-12-20T11:15:33;7.20;66.20
16134;DHT22;8172;45.018;5.972;2022-12-20T11:20:43;7.30;66.30
16134;DHT22;8172;45.018;5.972;2022-12-20T11:25:57;7.30;66.30
16134;DHT22;8172;45.018;5.972;2022-12-20T11:31:04;7.40;66.40
16134;DHT22;8172;45.018;5.972;2022-12-20T11:36:15;7.40;66.40
16134;DHT22;8172;45.018;5.972;2022-12-20T11:51:40;7.60;66.30
16134;DHT22;8172;45.018;5.972;2022-12-20T11:56:49;7.60;66.10
16134;DHT22;8172;45.018;5.972;2022-12-20T12:02:00;7.60;66.10
16134;DHT22;8172;45.018;5.972;2022-12-20T12:17:37;7.70;65.70
16134;DHT22;8172;45.018;5.972;2022-12-20T12:22:38;7.70;65.80
16134;DHT22;8172;45.018;5.972;2022-12-20T12:27:46;7.70;65.70
16134;DHT22;8172;45.018;5.972;2022-12-20T12:32:57;7.70;65.70
16134;DHT22;8172;45.018;5.972;2022-12-20T12:53:34;7.60;65.70
16134;DHT22;8172;45.018;5.972;2022-12-20T12:58:42;7.60;65.80
16134;DHT22;8172;45.018;5.972;2022-12-20T13:29:35;7.60;65.90
16134;DHT22;8172;45.018;5.972;2022-12-20T13:39:51;7.60;65.80
16134;DHT22;8172;45.018;5.972;2022-12-20T13:45:01;7.60;65.70
16134;DHT22;8172;45.018;5.972;2022-12-20T13:55:25;7.60;65.60
16134;DHT22;8172;45.018;5.972;2022-12-20T14:00:29;7.60;65.60
16134;DHT22;8172;45.018;5.972;2022-12-20T14:05:37;7.60;65.60
16134;DHT22;8172;45.018;5.972;2022-12-20T14:10:45;7.60;65.60
16134;DHT22;8172;45.018;5.972;2022-12-20T14:15:53;7.60;65.60
16134;DHT22;8172;45.018;5.972;2022-12-20T14:21:02;7.50;65.50
16134;DHT22;8172;45.018;5.972;2022-12-20T14:26:14;7.50;65.50
16134;DHT22;8172;45.018;5.972;2022-12-20T14:36:32;7.50;65.60
16134;DHT22;8172;45.018;5.972;2022-12-20T14:41:42;7.50;65.60
16134;DHT22;8172;45.018;5.972;2022-12-20T14:46:51;7.50;65.60
16134;DHT22;8172;45.018;5.972;2022-12-20T14:52:06;7.50;65.70
16134;DHT22;8172;45.018;5.972;2022-12-20T14:57:51;7.40;65.80
16134;DHT22;8172;45.018;5.972;2022-12-20T15:07:32;7.40;65.90
16134;DHT22;8172;45.018;5.972;2022-12-20T15:12:39;7.30;65.80
16134;DHT22;8172;45.018;5.972;2022-12-20T15:17:47;7.30;65.90
16134;DHT22;8172;45.018;5.972;2022-12-20T15:22:55;7.30;65.80
16134;DHT22;8172;45.018;5.972;2022-12-20T15:28:07;7.20;66.00
16134;DHT22;8172;45.018;5.972;2022-12-20T15:33:16;7.20;66.00
16134;DHT22;8172;45.018;5.972;2022-12-20T15:38:23;7.20;65.80
16134;DHT22;8172;45.018;5.972;2022-12-20T15:43:35;7.20;65.70
16134;DHT22;8172;45.018;5.972;2022-12-20T15:48:44;7.20;65.70
16134;DHT22;8172;45.018;5.972;2022-12-20T15:53:53;7.20;65.70
16134;DHT22;8172;45.018;5.972;2022-12-20T15:59:01;7.20;65.70
16134;DHT22;8172;45.018;5.972;2022-12-20T16:04:15;7.20;65.70
16134;DHT22;8172;45.018;5.972;2022-12-20T16:09:21;7.20;65.60
16134;DHT22;8172;45.018;5.972;2022-12-20T16:14:32;7.20;65.70
16134;DHT22;8172;45.018;5.972;2022-12-20T16:19:40;7.10;65.70
16134;DHT22;8172;45.018;5.972;2022-12-20T16:24:47;7.10;65.70
16134;DHT22;8172;45.018;5.972;2022-12-20T16:29:55;7.10;65.70
16134;DHT22;8172;45.018;5.972;2022-12-20T16:35:02;7.10;65.70
16134;DHT22;8172;45.018;5.972;2022-12-20T16:40:10;7.10;65.70
16134;DHT22;8172;45.018;5.972;2022-12-20T16:45:24;7.00;65.70
16134;DHT22;8172;45.018;5.972;2022-12-20T16:50:29;7.00;65.80
16134;DHT22;8172;45.018;5.972;2022-12-20T16:55:36;7.00;65.90
16134;DHT22;8172;45.018;5.972;2022-12-20T17:00:45;7.00;65.90
16134;DHT22;8172;45.018;5.972;2022-12-20T17:05:52;7.00;65.90
16134;DHT22;8172;45.018;5.972;2022-12-20T17:11:00;7.00;66.00
16134;DHT22;8172;45.018;5.972;2022-12-20T17:16:10;6.90;66.00
16134;DHT22;8172;45.018;5.972;2022-12-20T17:21:21;6.90;66.00
16134;DHT22;8172;45.018;5.972;2022-12-20T17:26:29;6.90;66.10
16134;DHT22;8172;45.018;5.972;2022-12-20T17:31:38;6.90;66.00
16134;DHT22;8172;45.018;5.972;2022-12-20T17:36:50;6.90;66.00
16134;DHT22;8172;45.018;5.972;2022-12-20T17:41:58;6.90;66.10
16134;DHT22;8172;45.018;5.972;2022-12-20T17:47:06;6.90;66.00
16134;DHT22;8172;45.018;5.972;2022-12-20T17:52:14;6.90;66.00
16134;DHT22;8172;45.018;5.972;2022-12-20T17:57:21;6.90;66.10
16134;DHT22;8172;45.018;5.972;2022-12-20T18:02:28;6.90;66.10
16134;DHT22;8172;45.018;5.972;2022-12-20T18:12:51;6.90;66.20
16134;DHT22;8172;45.018;5.972;2022-12-20T18:17:59;6.80;66.30
16134;DHT22;8172;45.018;5.972;2022-12-20T18:23:08;6.90;66.40
16134;DHT22;8172;45.018;5.972;2022-12-20T18:28:15;6.80;66.40
16134;DHT22;8172;45.018;5.972;2022-12-20T18:33:22;6.80;66.30
16134;DHT22;8172;45.018;5.972;2022-12-20T18:38:30;6.80;66.30
16134;DHT22;8172;45.018;5.972;2022-12-20T18:43:37;6.80;66.30
16134;DHT22;8172;45.018;5.972;2022-12-20T18:48:45;6.80;66.30
16134;DHT22;8172;45.018;5.972;2022-12-20T18:53:54;6.80;66.30
16134;DHT22;8172;45.018;5.972;2022-12-20T18:59:03;6.80;66.30
16134;DHT22;8172;45.018;5.972;2022-12-20T19:04:12;6.80;66.30
16134;DHT22;8172;45.018;5.972;2022-12-20T19:09:21;6.80;66.30
16134;DHT22;8172;45.018;5.972;2022-12-20T19:14:28;6.80;66.30
16134;DHT22;8172;45.018;5.972;2022-12-20T19:19:35;6.80;66.30
16134;DHT22;8172;45.018;5.972;2022-12-20T19:24:43;6.80;66.30
16134;DHT22;8172;45.018;5.972;2022-12-20T19:29:50;6.80;66.20
16134;DHT22;8172;45.018;5.972;2022-12-20T19:34:58;6.80;66.10
16134;DHT22;8172;45.018;5.972;2022-12-20T19:40:07;6.80;66.00
16134;DHT22;8172;45.018;5.972;2022-12-20T19:45:15;6.80;66.00
16134;DHT22;8172;45.018;5.972;2022-12-20T19:50:22;6.80;66.00
16134;DHT22;8172;45.018;5.972;2022-12-20T19:55:29;6.80;65.90
16134;DHT22;8172;45.018;5.972;2022-12-20T20:00:36;6.80;65.70
16134;DHT22;8172;45.018;5.972;2022-12-20T20:05:43;6.80;65.70
16134;DHT22;8172;45.018;5.972;2022-12-20T20:10:52;6.80;65.60
16134;DHT22;8172;45.018;5.972;2022-12-20T20:16:01;6.80;65.50
16134;DHT22;8172;45.018;5.972;2022-12-20T20:21:12;6.80;65.30
16134;DHT22;8172;45.018;5.972;2022-12-20T20:26:23;6.80;65.20
16134;DHT22;8172;45.018;5.972;2022-12-20T20:31:30;6.80;65.10
16134;DHT22;8172;45.018;5.972;2022-12-20T20:36:38;6.80;65.00
16134;DHT22;8172;45.018;5.972;2022-12-20T20:41:45;6.90;64.70
16134;DHT22;8172;45.018;5.972;2022-12-20T20:46:52;6.90;64.40
16134;DHT22;8172;45.018;5.972;2022-12-20T20:51:59;6.90;64.20
16134;DHT22;8172;45.018;5.972;2022-12-20T20:57:06;7.00;64.20
16134;DHT22;8172;45.018;5.972;2022-12-20T21:02:13;7.00;64.10
16134;DHT22;8172;45.018;5.972;2022-12-20T21:07:20;7.00;64.10
16134;DHT22;8172;45.018;5.972;2022-12-20T21:12:27;7.00;64.40
16134;DHT22;8172;45.018;5.972;2022-12-20T21:17:34;7.00;64.20
16134;DHT22;8172;45.018;5.972;2022-12-20T21:22:41;7.00;64.20
16134;DHT22;8172;45.018;5.972;2022-12-20T21:27:48;6.90;64.20
16134;DHT22;8172;45.018;5.972;2022-12-20T21:32:55;6.90;64.40
16134;DHT22;8172;45.018;5.972;2022-12-20T21:38:02;6.90;64.40
16134;DHT22;8172;45.018;5.972;2022-12-20T21:43:09;6.90;64.00
16134;DHT22;8172;45.018;5.972;2022-12-20T21:48:17;6.90;64.10
16134;DHT22;8172;45.018;5.972;2022-12-20T21:53:24;6.90;64.20
16134;DHT22;8172;45.018;5.972;2022-12-20T21:58:32;6.90;64.20
16134;DHT22;8172;45.018;5.972;2022-12-20T22:03:39;6.90;64.20
16134;DHT22;8172;45.018;5.972;2022-12-20T22:08:49;7.00;63.90
16134;DHT22;8172;45.018;5.972;2022-12-20T22:13:56;7.00;63.70
16134;DHT22;8172;45.018;5.972;2022-12-20T22:19:04;7.00;63.70
16134;DHT22;8172;45.018;5.972;2022-12-20T22:24:11;7.10;63.70
16134;DHT22;8172;45.018;5.972;2022-12-20T22:29:18;7.10;63.90
16134;DHT22;8172;45.018;5.972;2022-12-20T22:34:25;7.10;63.80
16134;DHT22;8172;45.018;5.972;2022-12-20T22:39:32;7.10;63.90
16134;DHT22;8172;45.018;5.972;2022-12-20T22:44:39;7.10;64.00
16134;DHT22;8172;45.018;5.972;2022-12-20T22:49:46;7.10;63.90
16134;DHT22;8172;45.018;5.972;2022-12-20T22:54:54;7.10;64.00
16134;DHT22;8172;45.018;5.972;2022-12-20T23:00:01;7.20;64.10
16134;DHT22;8172;45.018;5.972;2022-12-20T23:05:08;7.20;64.20
16134;DHT22;8172;45.018;5.972;2022-12-20T23:10:17;7.20;64.20
16134;DHT22;8172;45.018;5.972;2022-12-20T23:15:26;7.20;64.20
16134;DHT22;8172;45.018;5.972;2022-12-20T23:20:34;7.30;64.20
16134;DHT22;8172;45.018;5.972;2022-12-20T23:25:43;7.20;64.30
16134;DHT22;8172;45.018;5.972;2022-12-20T23:30:50;7.20;64.50
16134;DHT22;8172;45.018;5.972;2022-12-20T23:35:59;7.20;64.70
16134;DHT22;8172;45.018;5.972;2022-12-20T23:41:08;7.30;64.70
16134;DHT22;8172;45.018;5.972;2022-12-20T23:46:17;7.30;64.80
16134;DHT22;8172;45.018;5.972;2022-12-20T23:51:25;7.40;64.90
16134;DHT22;8172;45.018;5.972;2022-12-20T23:56:32;7.40;65.00
